Terminal Aerodrome Forecast
Issued by NWS Central Illinois

Home | Current Version | Previous Version | Text Only | Print | Product List | Glossary On
Versions: 1 2 3 4 5 6 7 8 9 10 11 12 13 14 15 16 17 18 19 20 21 22 23 24
000
FTUS43 KILX 072346
TAFSPI
TAF
KSPI 072346Z 0800/0824 04008KT P6SM SCT025 BKN035
     FM080300 05005KT 6SM HZ SCT035 BKN050
     FM080700 05004KT 4SM BR SCT025 BKN100
     FM080900 05005KT 3SM -SHRA BR SCT007 OVC015
     FM081600 13007KT 4SM -SHRA BR OVC008=

USA.gov is the U.S. government's official web portal to all federal, state and local government web resources and services.